createdAt,value
2023-04-14T00:00:33.969Z,67.17
2023-04-14T00:05:53.682Z,67.27
2023-04-14T00:10:56.932Z,67.47
2023-04-14T00:22:25.860Z,67.81
2023-04-14T00:27:29.759Z,67.80
2023-04-14T00:32:33.389Z,67.84
2023-04-14T00:37:36.774Z,68.08
2023-04-14T00:42:47.654Z,68.43
2023-04-14T00:48:33.906Z,68.68
2023-04-14T00:53:37.669Z,68.75
2023-04-14T00:58:42.288Z,68.81
2023-04-14T01:03:45.822Z,68.69
2023-04-14T01:08:50.823Z,68.49
2023-04-14T01:13:57.405Z,68.35
2023-04-14T01:19:23.613Z,68.35
2023-04-14T01:24:45.099Z,68.60
2023-04-14T01:30:19.225Z,68.53
2023-04-14T01:35:42.688Z,68.49
2023-04-14T01:40:51.485Z,68.67
2023-04-14T01:45:59.368Z,68.74
2023-04-14T01:51:06.137Z,68.92
2023-04-14T01:56:13.282Z,68.95
2023-04-14T02:01:18.203Z,69.18
2023-04-14T02:06:23.250Z,69.58
2023-04-14T02:11:28.447Z,69.76
2023-04-14T02:16:34.101Z,69.94
2023-04-14T02:21:38.256Z,70.19
2023-04-14T02:26:48.068Z,70.22
2023-04-14T02:32:01.081Z,70.40
2023-04-14T02:37:15.613Z,70.34
2023-04-14T02:42:22.823Z,70.47
2023-04-14T02:47:33.298Z,70.47
2023-04-14T02:52:38.156Z,70.51
2023-04-14T02:57:41.967Z,70.69
2023-04-14T03:02:46.713Z,70.44
2023-04-14T03:07:53.214Z,70.41
2023-04-14T03:12:58.975Z,70.36
2023-04-14T03:18:04.263Z,70.28
2023-04-14T03:23:12.111Z,70.22
2023-04-14T03:28:23.188Z,70.07
2023-04-14T03:33:29.272Z,69.92
2023-04-14T03:38:34.826Z,69.96
2023-04-14T03:43:38.529Z,70.02
2023-04-14T03:48:45.952Z,70.23
2023-04-14T03:53:52.155Z,70.36
2023-04-14T03:58:57.426Z,70.40
2023-04-14T04:04:03.212Z,70.16
2023-04-14T04:09:09.549Z,70.06
2023-04-14T04:14:19.112Z,70.03
2023-04-14T04:19:25.456Z,70.11
2023-04-14T04:24:33.764Z,70.02
2023-04-14T04:29:37.852Z,70.15
2023-04-14T04:34:42.525Z,70.19
2023-04-14T04:39:48.219Z,70.05
2023-04-14T04:51:06.894Z,69.64
2023-04-14T04:56:10.162Z,69.59
2023-04-14T05:01:15.135Z,69.72
2023-04-14T05:06:18.402Z,69.69
2023-04-14T05:11:22.199Z,69.81
2023-04-14T05:16:25.900Z,69.84
2023-04-14T05:21:29.223Z,69.73
2023-04-14T05:26:52.027Z,69.74
2023-04-14T05:31:56.212Z,69.69
2023-04-14T05:36:59.412Z,69.57
2023-04-14T05:42:03.021Z,69.54
2023-04-14T05:47:06.391Z,69.54
2023-04-14T05:52:09.736Z,69.49
2023-04-14T05:57:12.981Z,69.21
2023-04-14T06:02:16.359Z,69.22
2023-04-14T06:07:19.933Z,69.01
2023-04-14T06:12:23.406Z,68.78
2023-04-14T06:17:26.961Z,68.73
2023-04-14T06:22:30.441Z,68.62
2023-04-14T06:27:33.685Z,68.15
2023-04-14T06:32:37.135Z,67.81
2023-04-14T06:37:40.459Z,67.61
2023-04-14T06:42:43.988Z,67.52
2023-04-14T06:47:47.386Z,67.72
2023-04-14T06:52:50.696Z,66.40
2023-04-14T06:57:54.628Z,66.34
2023-04-14T07:02:58.137Z,66.15
2023-04-14T07:08:01.906Z,66.01
2023-04-14T07:13:05.221Z,65.95
2023-04-14T07:18:08.673Z,65.65
2023-04-14T07:23:12.056Z,65.65
2023-04-14T07:28:16.083Z,65.29
2023-04-14T07:33:55.667Z,65.09
2023-04-14T07:38:59.009Z,64.63
2023-04-14T07:44:03.430Z,63.78
2023-04-14T07:49:06.934Z,62.10
2023-04-14T07:54:11.449Z,61.12
2023-04-14T07:59:15.237Z,60.88
2023-04-14T08:04:18.693Z,60.68
2023-04-14T08:09:22.066Z,60.23
2023-04-14T08:14:25.562Z,59.88
2023-04-14T08:19:29.081Z,59.56
2023-04-14T08:24:32.366Z,58.94
2023-04-14T08:29:38.762Z,58.81
2023-04-14T08:35:37.271Z,58.96
2023-04-14T08:40:09.889Z,58.89
2023-04-14T08:45:13.556Z,58.72
2023-04-14T08:50:21.618Z,58.35
2023-04-14T08:55:26.070Z,57.23
2023-04-14T09:00:29.681Z,56.63
2023-04-14T09:05:33.397Z,55.44
2023-04-14T09:10:38.366Z,55.46
2023-04-14T09:15:42.389Z,55.54
2023-04-14T09:20:48.081Z,53.59
2023-04-14T09:26:13.726Z,51.51
2023-04-14T09:31:18.637Z,50.35
2023-04-14T09:37:07.075Z,49.82
2023-04-14T09:42:10.114Z,47.83
2023-04-14T09:47:16.355Z,46.96
2023-04-14T09:52:19.353Z,45.48
2023-04-14T09:57:26.606Z,45.17
2023-04-14T10:02:30.943Z,44.44
2023-04-14T10:07:40.866Z,43.35
2023-04-14T10:12:45.375Z,41.59
2023-04-14T10:17:54.754Z,42.40
2023-04-14T10:22:58.100Z,42.88
2023-04-14T10:28:01.399Z,41.73
2023-04-14T10:33:04.648Z,41.34
2023-04-14T10:38:07.984Z,41.39
2023-04-14T10:43:13.972Z,40.95
2023-04-14T10:48:17.683Z,40.99
2023-04-14T10:53:20.860Z,41.25
2023-04-14T10:58:29.490Z,41.61
2023-04-14T11:03:43.869Z,40.93
2023-04-14T11:08:50.427Z,40.36
2023-04-14T11:14:13.286Z,40.01
2023-04-14T11:19:16.806Z,39.60
2023-04-14T11:24:22.323Z,39.12
2023-04-14T11:29:25.612Z,39.38
2023-04-14T11:34:28.954Z,38.72
2023-04-14T11:39:32.493Z,38.66
2023-04-14T11:44:36.268Z,38.80
2023-04-14T11:49:39.971Z,39.16
2023-04-14T11:54:43.217Z,39.02
2023-04-14T11:59:47.843Z,38.91
2023-04-14T12:04:51.862Z,39.65
2023-04-14T12:09:55.353Z,40.13
2023-04-14T12:14:59.225Z,39.41
2023-04-14T12:20:03.242Z,39.99
2023-04-14T12:25:12.739Z,40.27
2023-04-14T12:30:21.603Z,40.55
2023-04-14T12:35:24.948Z,40.38
2023-04-14T12:40:38.868Z,39.99
2023-04-14T12:45:42.957Z,39.62
2023-04-14T12:50:46.467Z,39.42
2023-04-14T12:56:10.591Z,39.18
2023-04-14T13:01:19.978Z,39.33
2023-04-14T13:06:27.610Z,38.92
2023-04-14T13:11:36.044Z,39.19
2023-04-14T13:16:39.771Z,39.56
2023-04-14T13:21:44.562Z,39.18
2023-04-14T13:26:49.514Z,38.80
2023-04-14T13:31:53.304Z,38.74
2023-04-14T13:36:57.366Z,39.07
2023-04-14T13:42:01.319Z,39.79
2023-04-14T13:47:06.418Z,40.22
2023-04-14T13:52:13.145Z,40.43
2023-04-14T13:57:17.344Z,40.59
2023-04-14T14:02:21.923Z,40.71
2023-04-14T14:07:27.001Z,40.89
2023-04-14T14:12:32.639Z,41.18
2023-04-14T14:17:37.592Z,41.23
2023-04-14T14:22:42.088Z,41.19
2023-04-14T14:27:46.211Z,40.86
2023-04-14T14:32:51.009Z,41.06
2023-04-14T14:37:54.876Z,41.08
2023-04-14T14:43:01.615Z,41.28
2023-04-14T14:48:06.120Z,41.71
2023-04-14T14:53:10.066Z,42.19
2023-04-14T14:58:13.259Z,41.83
2023-04-14T15:03:17.228Z,41.94
2023-04-14T15:08:20.341Z,41.56
2023-04-14T15:13:23.989Z,41.53
2023-04-14T15:18:27.075Z,41.67
2023-04-14T15:23:33.054Z,41.14
2023-04-14T15:28:36.087Z,41.54
2023-04-14T15:33:39.143Z,41.58
2023-04-14T15:38:42.254Z,41.90
2023-04-14T15:43:45.898Z,41.79
2023-04-14T15:48:48.880Z,42.03
2023-04-14T15:53:52.498Z,42.47
2023-04-14T15:58:55.776Z,42.18
2023-04-14T16:03:59.097Z,42.51
2023-04-14T16:09:03.571Z,42.67
2023-04-14T16:14:07.227Z,42.71
2023-04-14T16:19:10.532Z,42.94
2023-04-14T16:24:15.109Z,43.11
2023-04-14T16:29:18.378Z,43.55
2023-04-14T16:34:21.961Z,43.87
2023-04-14T16:39:25.279Z,44.37
2023-04-14T16:44:28.472Z,44.46
2023-04-14T16:49:32.061Z,44.86
2023-04-14T16:54:36.912Z,45.68
2023-04-14T16:59:41.696Z,45.78
2023-04-14T17:04:45.350Z,46.37
2023-04-14T17:09:49.929Z,46.98
2023-04-14T17:14:53.276Z,47.24
2023-04-14T17:19:57.004Z,47.97
2023-04-14T17:25:00.616Z,48.29
2023-04-14T17:30:05.189Z,48.99
2023-04-14T17:35:09.592Z,49.42
2023-04-14T17:40:13.882Z,49.79
2023-04-14T17:45:23.014Z,50.11
2023-04-14T17:50:26.338Z,50.71
2023-04-14T17:55:29.504Z,51.18
2023-04-14T18:00:32.782Z,51.57
2023-04-14T18:05:36.610Z,51.95
2023-04-14T18:10:39.825Z,52.38
2023-04-14T18:15:43.247Z,52.50
2023-04-14T18:20:50.351Z,52.28
2023-04-14T18:31:10.013Z,52.55
2023-04-14T18:36:14.640Z,53.00
2023-04-14T18:41:18.055Z,53.20
2023-04-14T18:46:21.838Z,53.24
2023-04-14T18:51:32.849Z,53.06
2023-04-14T18:56:36.667Z,53.18
2023-04-14T19:01:40.720Z,53.29
2023-04-14T19:06:44.099Z,53.46
2023-04-14T19:11:48.478Z,53.77
2023-04-14T19:16:51.889Z,53.90
2023-04-14T19:21:55.431Z,54.29
2023-04-14T19:26:58.979Z,54.05
2023-04-14T19:32:02.730Z,54.32
2023-04-14T19:37:06.099Z,54.38
2023-04-14T19:42:09.707Z,54.49
2023-04-14T19:47:13.004Z,54.67
2023-04-14T19:52:16.461Z,54.57
2023-04-14T19:57:22.142Z,54.64
2023-04-14T20:02:30.415Z,54.76
2023-04-14T20:07:34.244Z,54.92
2023-04-14T20:12:37.715Z,55.06
2023-04-14T20:17:41.008Z,55.28
2023-04-14T20:22:45.658Z,55.37
2023-04-14T20:27:49.661Z,55.51
2023-04-14T20:32:53.379Z,55.79
2023-04-14T20:42:55.800Z,56.54
2023-04-14T20:47:59.249Z,56.89
2023-04-14T20:53:02.748Z,57.27
2023-04-14T20:58:06.063Z,57.70
2023-04-14T21:03:10.026Z,58.10
2023-04-14T21:08:13.869Z,58.53
2023-04-14T21:15:26.637Z,58.67
2023-04-14T21:18:42.154Z,58.95
2023-04-14T21:23:45.599Z,58.97
2023-04-14T21:28:48.827Z,59.11
2023-04-14T21:33:52.118Z,59.45
2023-04-14T21:38:55.455Z,59.73
2023-04-14T21:43:59.264Z,59.88
2023-04-14T21:49:03.905Z,60.24
2023-04-14T21:54:08.400Z,60.39
2023-04-14T21:59:12.020Z,60.43
2023-04-14T22:04:25.190Z,60.63
2023-04-14T22:09:39.686Z,60.69
2023-04-14T22:14:42.908Z,61.04
2023-04-14T22:19:46.513Z,61.45
2023-04-14T22:24:51.771Z,61.73
2023-04-14T22:29:55.043Z,61.92
2023-04-14T22:34:58.706Z,61.92
2023-04-14T22:40:03.423Z,61.70
2023-04-14T22:45:07.747Z,61.47
2023-04-14T22:50:11.258Z,61.17
2023-04-14T22:55:14.486Z,60.90
2023-04-14T23:00:17.849Z,61.07
2023-04-14T23:05:21.363Z,61.02
2023-04-14T23:10:24.898Z,61.01
2023-04-14T23:15:28.587Z,61.21
2023-04-14T23:20:32.194Z,61.20
2023-04-14T23:25:35.437Z,61.51
2023-04-14T23:30:38.734Z,61.67
2023-04-14T23:35:42.014Z,61.70
2023-04-14T23:40:45.596Z,61.81
2023-04-14T23:45:49.146Z,61.62
2023-04-14T23:50:58.990Z,61.18
2023-04-14T23:56:07.129Z,60.72
